This is the latest recevied weather packets stored in our database for station/object KD8BMB. If no packets are shown the sender has not sent any weather packets the latest 10 day(s).
| Time | Temp. | Humidity | Pressure | Rain* | Wind** | Luminosity | Snow |
|---|---|---|---|---|---|---|---|
| 1777486349 | 11.67° C | 73% | 1011.2 hPa | 0 mm | - | 146 W/m² | - |
| 1777486046 | 11.67° C | 72% | 1011.1 hPa | 0 mm | - | 229 W/m² | - |
| 1777485743 | 11.67° C | 73% | 1011.1 hPa | 0 mm | - | 295 W/m² | - |
| 1777485438 | 11.67° C | 74% | 1011.2 hPa | 0 mm | - | 298 W/m² | - |
| 1777485134 | 11.11° C | 75% | 1011.2 hPa | 0 mm | - | 307 W/m² | - |
| 1777484831 | 10.56° C | 77% | 1011.4 hPa | 0 mm | - | 221 W/m² | - |
| 1777484528 | 10.56° C | 78% | 1011.4 hPa | 0 mm | - | 158 W/m² | - |
| 1777484225 | 11.11° C | 77% | 1011.4 hPa | 0 mm | - | 91 W/m² | - |
| 1777483921 | 11.11° C | 78% | 1011.5 hPa | 0 mm | - | 147 W/m² | - |
| 1777483617 | 11.11° C | 78% | 1011.5 hPa | 0 mm | - | 140 W/m² | - |
| 1777483312 | 11.11° C | 78% | 1011.5 hPa | 0 mm | - | 136 W/m² | - |
| 1777483009 | 11.67° C | 77% | 1011.6 hPa | 0 mm | - | 216 W/m² | - |
| 1777482705 | 12.22° C | 76% | 1011.8 hPa | 0 mm | - | 219 W/m² | - |
| 1777482401 | 11.67° C | 76% | 1011.6 hPa | 0 mm | - | 860 W/m² | - |
| 1777482099 | 11.11° C | 79% | 1011.8 hPa | 0 mm | - | 383 W/m² | - |
| 1777481797 | 11.11° C | 78% | 1011.8 hPa | 0 mm | - | 324 W/m² | - |
| 1777481494 | 10.56° C | 80% | 1012 hPa | 0 mm | - | 243 W/m² | - |
| 1777481190 | 10.56° C | 78% | 1012.2 hPa | 0 mm | - | 338 W/m² | - |
| 1777480887 | 10.56° C | 80% | 1012.1 hPa | 0 mm | - | 260 W/m² | - |
| 1777480583 | 10.56° C | 79% | 1012.1 hPa | 0 mm | - | 315 W/m² | - |
| 1777480281 | 10.56° C | 81% | 1012.2 hPa | 0 mm | - | 326 W/m² | - |
| 1777479976 | 10.56° C | 80% | 1012.2 hPa | 0 mm | - | 295 W/m² | - |
| 1777479673 | 10.56° C | 80% | 1012.2 hPa | 0 mm | - | 223 W/m² | - |
| 1777479372 | 10.56° C | 79% | 1012.5 hPa | 0 mm | - | 346 W/m² | - |
| 1777479067 | 11.11° C | 80% | 1012.5 hPa | 0 mm | - | 238 W/m² | - |
* Rain latest hour (hover to see other rain measurements)
** Current wind speed in m/s (hover to see current wind gust speed)